sensor_id;sensor_type;location;lat;lon;timestamp;pressure;altitude;pressure_sealevel;temperature;humidity
61324;BME280;47203;48.428;11.974;2023-03-17T00:01:00;96788.81;;;8.53;37.58
61324;BME280;47203;48.428;11.974;2023-03-17T00:03:06;96788.25;;;8.51;37.66
61324;BME280;47203;48.428;11.974;2023-03-17T00:05:17;96791.38;;;8.48;37.66
61324;BME280;47203;48.428;11.974;2023-03-17T00:07:23;96784.53;;;8.47;37.44
61324;BME280;47203;48.428;11.974;2023-03-17T00:09:28;96784.00;;;8.45;37.69
61324;BME280;47203;48.428;11.974;2023-03-17T00:11:33;96778.75;;;8.45;37.66
61324;BME280;47203;48.428;11.974;2023-03-17T00:13:38;96770.88;;;8.45;37.58
61324;BME280;47203;48.428;11.974;2023-03-17T00:15:43;96769.06;;;8.45;37.69
61324;BME280;47203;48.428;11.974;2023-03-17T00:17:53;96771.66;;;8.45;37.61
61324;BME280;47203;48.428;11.974;2023-03-17T00:19:58;96769.28;;;8.44;37.58
61324;BME280;47203;48.428;11.974;2023-03-17T00:22:12;96762.72;;;8.41;37.79
61324;BME280;47203;48.428;11.974;2023-03-17T00:24:18;96765.56;;;8.39;37.53
61324;BME280;47203;48.428;11.974;2023-03-17T00:26:23;96758.19;;;8.36;37.77
61324;BME280;47203;48.428;11.974;2023-03-17T00:28:28;96758.19;;;8.36;37.50
61324;BME280;47203;48.428;11.974;2023-03-17T00:30:33;96762.66;;;8.36;37.64
61324;BME280;47203;48.428;11.974;2023-03-17T00:32:38;96757.41;;;8.36;37.79
61324;BME280;47203;48.428;11.974;2023-03-17T00:34:46;96751.88;;;8.32;37.69
61324;BME280;47203;48.428;11.974;2023-03-17T00:36:51;96752.91;;;8.31;37.61
61324;BME280;47203;48.428;11.974;2023-03-17T00:38:57;96747.91;;;8.30;37.84
61324;BME280;47203;48.428;11.974;2023-03-17T00:41:03;96743.16;;;8.27;37.63
61324;BME280;47203;48.428;11.974;2023-03-17T00:43:08;96748.41;;;8.27;37.66
61324;BME280;47203;48.428;11.974;2023-03-17T00:45:13;96748.41;;;8.27;37.65
61324;BME280;47203;48.428;11.974;2023-03-17T00:47:19;96752.06;;;8.26;37.82
61324;BME280;47203;48.428;11.974;2023-03-17T00:49:24;96748.91;;;8.24;37.59
61324;BME280;47203;48.428;11.974;2023-03-17T00:51:32;96744.94;;;8.21;37.74
61324;BME280;47203;48.428;11.974;2023-03-17T00:53:37;96741.75;;;8.19;37.50
61324;BME280;47203;48.428;11.974;2023-03-17T00:55:43;96741.22;;;8.17;37.81
61324;BME280;47203;48.428;11.974;2023-03-17T00:57:50;96731.25;;;8.14;37.90
61324;BME280;47203;48.428;11.974;2023-03-17T00:59:55;96735.16;;;8.11;37.65
61324;BME280;47203;48.428;11.974;2023-03-17T01:02:01;96733.56;;;8.10;37.76
61324;BME280;47203;48.428;11.974;2023-03-17T01:04:08;96721.75;;;8.08;37.72
61324;BME280;47203;48.428;11.974;2023-03-17T01:06:13;96722.00;;;8.06;37.73
61324;BME280;47203;48.428;11.974;2023-03-17T01:08:22;96717.22;;;8.03;37.65
61324;BME280;47203;48.428;11.974;2023-03-17T01:10:28;96713.28;;;8.00;37.93
61324;BME280;47203;48.428;11.974;2023-03-17T01:12:33;96706.97;;;7.96;37.74
61324;BME280;47203;48.428;11.974;2023-03-17T01:14:38;96705.88;;;7.92;37.63
61324;BME280;47203;48.428;11.974;2023-03-17T01:16:45;96699.03;;;7.91;37.76
61324;BME280;47203;48.428;11.974;2023-03-17T01:18:51;96700.09;;;7.90;37.92
61324;BME280;47203;48.428;11.974;2023-03-17T01:20:56;96696.91;;;7.88;37.68
61324;BME280;47203;48.428;11.974;2023-03-17T01:23:01;96696.13;;;7.88;37.72
61324;BME280;47203;48.428;11.974;2023-03-17T01:25:10;96697.97;;;7.87;37.91
61324;BME280;47203;48.428;11.974;2023-03-17T01:27:16;96695.88;;;7.89;37.92
61324;BME280;47203;48.428;11.974;2023-03-17T01:29:21;96691.66;;;7.88;37.87
61324;BME280;47203;48.428;11.974;2023-03-17T01:31:26;96678.56;;;7.88;37.60
61324;BME280;47203;48.428;11.974;2023-03-17T01:33:31;96685.91;;;7.86;37.80
61324;BME280;47203;48.428;11.974;2023-03-17T01:35:37;96679.31;;;7.83;37.78
61324;BME280;47203;48.428;11.974;2023-03-17T01:37:43;96676.16;;;7.81;37.77
61324;BME280;47203;48.428;11.974;2023-03-17T01:39:48;96672.19;;;7.79;37.83
61324;BME280;47203;48.428;11.974;2023-03-17T01:41:57;96671.88;;;7.75;37.92
61324;BME280;47203;48.428;11.974;2023-03-17T01:44:03;96678.97;;;7.75;37.90
61324;BME280;47203;48.428;11.974;2023-03-17T01:46:22;96673.19;;;7.73;37.83
61324;BME280;47203;48.428;11.974;2023-03-17T01:48:30;96671.84;;;7.70;37.96
61324;BME280;47203;48.428;11.974;2023-03-17T01:50:38;96672.09;;;7.68;37.96
61324;BME280;47203;48.428;11.974;2023-03-17T01:52:43;96662.66;;;7.67;37.99
61324;BME280;47203;48.428;11.974;2023-03-17T01:54:51;96664.72;;;7.65;38.24
61324;BME280;47203;48.428;11.974;2023-03-17T01:57:02;96662.03;;;7.60;38.09
61324;BME280;47203;48.428;11.974;2023-03-17T01:59:16;96652.56;;;7.54;38.04
61324;BME280;47203;48.428;11.974;2023-03-17T02:01:26;96654.06;;;7.50;38.11
61324;BME280;47203;48.428;11.974;2023-03-17T02:03:33;96651.94;;;7.47;38.03
61324;BME280;47203;48.428;11.974;2023-03-17T02:05:38;96650.59;;;7.44;38.15
61324;BME280;47203;48.428;11.974;2023-03-17T02:07:44;96657.38;;;7.40;38.39
61324;BME280;47203;48.428;11.974;2023-03-17T02:09:49;96657.06;;;7.37;38.38
61324;BME280;47203;48.428;11.974;2023-03-17T02:11:55;96651.56;;;7.33;38.44
61324;BME280;47203;48.428;11.974;2023-03-17T02:14:04;96644.16;;;7.30;38.40
61324;BME280;47203;48.428;11.974;2023-03-17T02:16:13;96645.22;;;7.29;38.37
61324;BME280;47203;48.428;11.974;2023-03-17T02:18:21;96642.84;;;7.27;38.39
61324;BME280;47203;48.428;11.974;2023-03-17T02:23:20;96644.53;;;7.16;38.33
61324;BME280;47203;48.428;11.974;2023-03-17T02:25:28;96649.22;;;7.14;38.52
61324;BME280;47203;48.428;11.974;2023-03-17T02:27:38;96641.63;;;7.13;38.73
61324;BME280;47203;48.428;11.974;2023-03-17T02:29:45;96635.03;;;7.10;38.44
61324;BME280;47203;48.428;11.974;2023-03-17T02:31:51;96631.06;;;7.08;38.67
61324;BME280;47203;48.428;11.974;2023-03-17T02:33:56;96630.78;;;7.04;38.27
61324;BME280;47203;48.428;11.974;2023-03-17T02:36:01;96631.03;;;7.03;38.61
61324;BME280;47203;48.428;11.974;2023-03-17T02:38:06;96634.91;;;7.00;38.53
61324;BME280;47203;48.428;11.974;2023-03-17T02:40:14;96630.72;;;6.99;38.61
61324;BME280;47203;48.428;11.974;2023-03-17T02:42:19;96633.56;;;6.97;38.57
61324;BME280;47203;48.428;11.974;2023-03-17T02:44:24;96626.53;;;6.98;38.64
61324;BME280;47203;48.428;11.974;2023-03-17T02:46:29;96628.34;;;6.97;38.74
61324;BME280;47203;48.428;11.974;2023-03-17T02:48:35;96629.94;;;6.98;38.72
61324;BME280;47203;48.428;11.974;2023-03-17T02:50:40;96623.91;;;6.98;38.59
61324;BME280;47203;48.428;11.974;2023-03-17T02:52:45;96624.94;;;6.97;38.59
61324;BME280;47203;48.428;11.974;2023-03-17T02:54:50;96634.59;;;6.96;38.47
61324;BME280;47203;48.428;11.974;2023-03-17T02:56:57;96631.69;;;6.93;38.57
61324;BME280;47203;48.428;11.974;2023-03-17T02:59:02;96628.81;;;6.94;38.73
61324;BME280;47203;48.428;11.974;2023-03-17T03:01:08;96638.75;;;6.92;38.73
61324;BME280;47203;48.428;11.974;2023-03-17T03:03:13;96627.72;;;6.90;38.59
61324;BME280;47203;48.428;11.974;2023-03-17T03:05:19;96626.94;;;6.90;38.74
61324;BME280;47203;48.428;11.974;2023-03-17T03:07:23;96622.50;;;6.90;38.59
61324;BME280;47203;48.428;11.974;2023-03-17T03:09:28;96623.75;;;6.88;38.64
61324;BME280;47203;48.428;11.974;2023-03-17T03:11:33;96622.97;;;6.87;38.94
61324;BME280;47203;48.428;11.974;2023-03-17T03:13:41;96616.16;;;6.86;38.91
61324;BME280;47203;48.428;11.974;2023-03-17T03:15:46;96613.06;;;6.89;38.79
61324;BME280;47203;48.428;11.974;2023-03-17T03:17:51;96604.97;;;6.91;38.81
61324;BME280;47203;48.428;11.974;2023-03-17T03:19:56;96607.34;;;6.92;38.82
61324;BME280;47203;48.428;11.974;2023-03-17T03:22:00;96602.38;;;6.91;38.73
61324;BME280;47203;48.428;11.974;2023-03-17T03:24:06;96607.59;;;6.91;38.74
61324;BME280;47203;48.428;11.974;2023-03-17T03:26:11;96605.44;;;6.88;38.73
61324;BME280;47203;48.428;11.974;2023-03-17T03:28:16;96604.91;;;6.86;38.91
61324;BME280;47203;48.428;11.974;2023-03-17T03:30:23;96596.75;;;6.82;38.90
61324;BME280;47203;48.428;11.974;2023-03-17T03:32:29;96600.41;;;6.81;38.68
61324;BME280;47203;48.428;11.974;2023-03-17T03:34:34;96594.38;;;6.80;39.07
61324;BME280;47203;48.428;11.974;2023-03-17T03:36:39;96598.28;;;6.78;38.99
61324;BME280;47203;48.428;11.974;2023-03-17T03:38:45;96596.69;;;6.77;38.84
61324;BME280;47203;48.428;11.974;2023-03-17T03:40:50;96602.94;;;6.76;39.07
61324;BME280;47203;48.428;11.974;2023-03-17T03:42:54;96604.00;;;6.75;38.76
61324;BME280;47203;48.428;11.974;2023-03-17T03:44:59;96602.66;;;6.72;39.10
61324;BME280;47203;48.428;11.974;2023-03-17T03:47:07;96614.94;;;6.72;38.81
61324;BME280;47203;48.428;11.974;2023-03-17T03:49:13;96617.56;;;6.72;39.19
61324;BME280;47203;48.428;11.974;2023-03-17T03:51:17;96614.13;;;6.71;39.10
61324;BME280;47203;48.428;11.974;2023-03-17T03:53:23;96619.69;;;6.75;39.02
61324;BME280;47203;48.428;11.974;2023-03-17T03:55:28;96617.06;;;6.75;38.90
61324;BME280;47203;48.428;11.974;2023-03-17T03:57:33;96620.47;;;6.75;39.14
61324;BME280;47203;48.428;11.974;2023-03-17T03:59:38;96601.63;;;6.73;38.86
61324;BME280;47203;48.428;11.974;2023-03-17T04:01:43;96613.91;;;6.73;38.92
61324;BME280;47203;48.428;11.974;2023-03-17T04:03:50;96615.72;;;6.72;39.02
61324;BME280;47203;48.428;11.974;2023-03-17T04:05:55;96611.53;;;6.71;38.89
61324;BME280;47203;48.428;11.974;2023-03-17T04:08:00;96609.97;;;6.70;38.85
61324;BME280;47203;48.428;11.974;2023-03-17T04:10:06;96624.06;;;6.69;39.12
61324;BME280;47203;48.428;11.974;2023-03-17T04:12:12;96620.88;;;6.67;39.01
61324;BME280;47203;48.428;11.974;2023-03-17T04:14:17;96614.09;;;6.66;39.06
61324;BME280;47203;48.428;11.974;2023-03-17T04:16:22;96611.47;;;6.66;39.16
61324;BME280;47203;48.428;11.974;2023-03-17T04:18:27;96616.94;;;6.64;39.16
61324;BME280;47203;48.428;11.974;2023-03-17T04:20:35;96601.94;;;6.60;39.27
61324;BME280;47203;48.428;11.974;2023-03-17T04:22:40;96604.81;;;6.58;39.32
61324;BME280;47203;48.428;11.974;2023-03-17T04:24:45;96600.06;;;6.55;39.29
61324;BME280;47203;48.428;11.974;2023-03-17T04:26:50;96603.72;;;6.54;39.11
61324;BME280;47203;48.428;11.974;2023-03-17T04:28:55;96604.50;;;6.55;39.21
61324;BME280;47203;48.428;11.974;2023-03-17T04:31:00;96602.13;;;6.53;39.31
61324;BME280;47203;48.428;11.974;2023-03-17T04:33:05;96603.16;;;6.52;39.35
61324;BME280;47203;48.428;11.974;2023-03-17T04:35:12;96591.91;;;6.52;39.32
61324;BME280;47203;48.428;11.974;2023-03-17T04:37:20;96590.31;;;6.51;39.33
61324;BME280;47203;48.428;11.974;2023-03-17T04:39:25;96588.72;;;6.50;39.38
61324;BME280;47203;48.428;11.974;2023-03-17T04:41:31;96587.94;;;6.49;39.39
61324;BME280;47203;48.428;11.974;2023-03-17T04:43:36;96591.06;;;6.46;39.33
61324;BME280;47203;48.428;11.974;2023-03-17T04:45:42;96592.06;;;6.45;39.35
61324;BME280;47203;48.428;11.974;2023-03-17T04:47:46;96595.75;;;6.44;39.30
61324;BME280;47203;48.428;11.974;2023-03-17T04:49:51;96592.56;;;6.42;39.39
61324;BME280;47203;48.428;11.974;2023-03-17T04:51:56;96592.81;;;6.40;39.50
61324;BME280;47203;48.428;11.974;2023-03-17T04:54:04;96594.63;;;6.40;39.53
61324;BME280;47203;48.428;11.974;2023-03-17T04:56:09;96597.78;;;6.42;39.55
61324;BME280;47203;48.428;11.974;2023-03-17T04:58:14;96605.38;;;6.43;39.65
61324;BME280;47203;48.428;11.974;2023-03-17T05:00:31;96606.19;;;6.44;39.66
61324;BME280;47203;48.428;11.974;2023-03-17T05:02:39;96614.34;;;6.47;39.38
61324;BME280;47203;48.428;11.974;2023-03-17T05:04:45;96613.56;;;6.47;39.70
61324;BME280;47203;48.428;11.974;2023-03-17T05:06:50;96609.59;;;6.44;39.40
61324;BME280;47203;48.428;11.974;2023-03-17T05:08:54;96604.59;;;6.43;39.73
61324;BME280;47203;48.428;11.974;2023-03-17T05:11:02;96604.28;;;6.39;39.67
61324;BME280;47203;48.428;11.974;2023-03-17T05:13:07;96603.50;;;6.39;39.64
61324;BME280;47203;48.428;11.974;2023-03-17T05:15:12;96599.28;;;6.38;39.86
61324;BME280;47203;48.428;11.974;2023-03-17T05:17:17;96596.63;;;6.33;39.82
61324;BME280;47203;48.428;11.974;2023-03-17T05:19:22;96597.09;;;6.29;39.84
61324;BME280;47203;48.428;11.974;2023-03-17T05:21:27;96599.97;;;6.28;39.89
61324;BME280;47203;48.428;11.974;2023-03-17T05:23:32;96594.16;;;6.26;40.02
61324;BME280;47203;48.428;11.974;2023-03-17T05:25:38;96597.59;;;6.26;39.83
61324;BME280;47203;48.428;11.974;2023-03-17T05:27:46;96609.84;;;6.26;40.07
61324;BME280;47203;48.428;11.974;2023-03-17T05:29:50;96600.66;;;6.23;40.10
61324;BME280;47203;48.428;11.974;2023-03-17T05:31:56;96601.94;;;6.21;40.11
61324;BME280;47203;48.428;11.974;2023-03-17T05:34:02;96601.94;;;6.21;40.15
61324;BME280;47203;48.428;11.974;2023-03-17T05:36:08;96596.38;;;6.17;39.85
61324;BME280;47203;48.428;11.974;2023-03-17T05:38:13;96597.63;;;6.15;40.00
61324;BME280;47203;48.428;11.974;2023-03-17T05:40:19;96590.53;;;6.10;40.11
61324;BME280;47203;48.428;11.974;2023-03-17T05:42:24;96591.78;;;6.07;39.92
61324;BME280;47203;48.428;11.974;2023-03-17T05:44:32;96596.22;;;6.07;40.29
61324;BME280;47203;48.428;11.974;2023-03-17T05:46:37;96592.03;;;6.06;40.40
61324;BME280;47203;48.428;11.974;2023-03-17T05:48:42;96595.69;;;6.05;40.21
61324;BME280;47203;48.428;11.974;2023-03-17T05:50:47;96590.47;;;6.05;40.06
61324;BME280;47203;48.428;11.974;2023-03-17T05:52:52;96589.41;;;6.06;40.30
61324;BME280;47203;48.428;11.974;2023-03-17T05:54:57;96591.00;;;6.07;40.34
61324;BME280;47203;48.428;11.974;2023-03-17T05:57:04;96582.13;;;6.08;40.19
61324;BME280;47203;48.428;11.974;2023-03-17T05:59:09;96584.50;;;6.09;40.45
61324;BME280;47203;48.428;11.974;2023-03-17T06:01:18;96593.72;;;6.12;40.28
61324;BME280;47203;48.428;11.974;2023-03-17T06:03:23;96593.53;;;6.19;40.23
61324;BME280;47203;48.428;11.974;2023-03-17T06:05:28;96588.38;;;6.24;40.36
61324;BME280;47203;48.428;11.974;2023-03-17T06:07:34;96578.81;;;6.29;40.22
61324;BME280;47203;48.428;11.974;2023-03-17T06:09:55;96582.50;;;6.34;40.35
61324;BME280;47203;48.428;11.974;2023-03-17T06:12:01;96583.38;;;6.39;40.21
61324;BME280;47203;48.428;11.974;2023-03-17T06:14:07;96580.84;;;6.44;40.58
61324;BME280;47203;48.428;11.974;2023-03-17T06:16:12;96587.41;;;6.47;40.51
61324;BME280;47203;48.428;11.974;2023-03-17T06:18:20;96593.19;;;6.49;40.40
61324;BME280;47203;48.428;11.974;2023-03-17T06:20:24;96593.25;;;6.54;40.44
61324;BME280;47203;48.428;11.974;2023-03-17T06:22:29;96592.53;;;6.59;40.27
61324;BME280;47203;48.428;11.974;2023-03-17T06:24:34;96589.50;;;6.67;40.42
61324;BME280;47203;48.428;11.974;2023-03-17T06:26:39;96591.41;;;6.72;40.49
61324;BME280;47203;48.428;11.974;2023-03-17T06:28:44;96588.59;;;6.78;40.55
61324;BME280;47203;48.428;11.974;2023-03-17T06:30:49;96588.66;;;6.84;40.25
61324;BME280;47203;48.428;11.974;2023-03-17T06:32:54;96591.09;;;6.90;40.33
61324;BME280;47203;48.428;11.974;2023-03-17T06:35:02;96597.66;;;6.93;40.61
61324;BME280;47203;48.428;11.974;2023-03-17T06:37:08;96595.91;;;6.98;40.32
61324;BME280;47203;48.428;11.974;2023-03-17T06:39:13;96591.78;;;7.03;40.36
61324;BME280;47203;48.428;11.974;2023-03-17T06:41:19;96604.38;;;7.06;40.57
61324;BME280;47203;48.428;11.974;2023-03-17T06:43:24;96602.03;;;7.09;40.51
61324;BME280;47203;48.428;11.974;2023-03-17T06:45:29;96598.69;;;7.14;40.46
61324;BME280;47203;48.428;11.974;2023-03-17T06:47:35;96596.63;;;7.16;40.29
61324;BME280;47203;48.428;11.974;2023-03-17T06:49:40;96593.28;;;7.21;40.29
61324;BME280;47203;48.428;11.974;2023-03-17T06:51:48;96590.72;;;7.26;40.31
61324;BME280;47203;48.428;11.974;2023-03-17T06:53:52;96595.22;;;7.30;40.50
61324;BME280;47203;48.428;11.974;2023-03-17T06:55:57;96596.06;;;7.36;40.32
61324;BME280;47203;48.428;11.974;2023-03-17T06:58:02;96593.50;;;7.41;40.19
61324;BME280;47203;48.428;11.974;2023-03-17T07:00:09;96596.19;;;7.46;40.27
61324;BME280;47203;48.428;11.974;2023-03-17T07:02:16;96598.84;;;7.51;40.48
61324;BME280;47203;48.428;11.974;2023-03-17T07:04:21;96596.56;;;7.60;40.56
61324;BME280;47203;48.428;11.974;2023-03-17T07:06:26;96600.34;;;7.69;40.29
61324;BME280;47203;48.428;11.974;2023-03-17T07:08:34;96590.72;;;7.80;40.32
61324;BME280;47203;48.428;11.974;2023-03-17T07:10:40;96586.09;;;7.93;40.12
61324;BME280;47203;48.428;11.974;2023-03-17T07:12:46;96582.25;;;8.06;40.33
61324;BME280;47203;48.428;11.974;2023-03-17T07:14:51;96581.31;;;8.17;39.90
61324;BME280;47203;48.428;11.974;2023-03-17T07:16:56;96575.88;;;8.29;39.99
61324;BME280;47203;48.428;11.974;2023-03-17T07:19:01;96580.16;;;8.40;39.89
61324;BME280;47203;48.428;11.974;2023-03-17T07:21:08;96588.63;;;8.52;39.62
61324;BME280;47203;48.428;11.974;2023-03-17T07:23:13;96580.03;;;8.62;39.55
61324;BME280;47203;48.428;11.974;2023-03-17T07:25:21;96592.19;;;8.73;39.59
61324;BME280;47203;48.428;11.974;2023-03-17T07:27:26;96599.84;;;8.85;39.43
61324;BME280;47203;48.428;11.974;2023-03-17T07:29:32;96594.38;;;8.97;39.48
61324;BME280;47203;48.428;11.974;2023-03-17T07:31:37;96606.50;;;9.08;39.51
61324;BME280;47203;48.428;11.974;2023-03-17T07:33:45;96594.19;;;9.19;39.33
61324;BME280;47203;48.428;11.974;2023-03-17T07:35:51;96590.56;;;9.31;39.17
61324;BME280;47203;48.428;11.974;2023-03-17T07:37:56;96584.28;;;9.42;39.01
61324;BME280;47203;48.428;11.974;2023-03-17T07:40:01;96589.81;;;9.56;38.98
61324;BME280;47203;48.428;11.974;2023-03-17T07:42:11;96590.63;;;9.67;38.97
61324;BME280;47203;48.428;11.974;2023-03-17T07:44:18;96596.66;;;9.83;38.77
61324;BME280;47203;48.428;11.974;2023-03-17T07:46:23;96598.81;;;9.96;38.72
61324;BME280;47203;48.428;11.974;2023-03-17T07:48:28;96592.47;;;10.07;38.57
61324;BME280;47203;48.428;11.974;2023-03-17T07:50:37;96595.38;;;10.21;38.44
61324;BME280;47203;48.428;11.974;2023-03-17T07:52:43;96592.47;;;10.33;38.36
61324;BME280;47203;48.428;11.974;2023-03-17T07:54:48;96589.31;;;10.46;38.37
61324;BME280;47203;48.428;11.974;2023-03-17T07:56:54;96590.84;;;10.63;38.04
61324;BME280;47203;48.428;11.974;2023-03-17T07:59:01;96585.03;;;10.76;38.04
61324;BME280;47203;48.428;11.974;2023-03-17T08:01:08;96587.88;;;10.90;37.89
61324;BME280;47203;48.428;11.974;2023-03-17T08:03:13;96585.19;;;11.06;37.73
61324;BME280;47203;48.428;11.974;2023-03-17T08:05:20;96588.78;;;11.25;37.69
61324;BME280;47203;48.428;11.974;2023-03-17T08:07:25;96584.72;;;11.43;37.65
61324;BME280;47203;48.428;11.974;2023-03-17T08:09:29;96583.06;;;11.63;37.71
61324;BME280;47203;48.428;11.974;2023-03-17T08:11:35;96574.50;;;11.81;37.40
61324;BME280;47203;48.428;11.974;2023-03-17T08:13:40;96581.75;;;12.00;37.28
61324;BME280;47203;48.428;11.974;2023-03-17T08:15:48;96581.06;;;12.18;37.26
61324;BME280;47203;48.428;11.974;2023-03-17T08:17:52;96585.41;;;12.38;37.13
61324;BME280;47203;48.428;11.974;2023-03-17T08:19:58;96586.78;;;12.60;37.20
61324;BME280;47203;48.428;11.974;2023-03-17T08:22:03;96584.91;;;12.85;37.04
61324;BME280;47203;48.428;11.974;2023-03-17T08:24:08;96582.03;;;13.05;36.45
61324;BME280;47203;48.428;11.974;2023-03-17T08:26:13;96578.34;;;13.25;36.38
61324;BME280;47203;48.428;11.974;2023-03-17T08:28:19;96573.88;;;13.45;36.30
61324;BME280;47203;48.428;11.974;2023-03-17T08:30:24;96575.44;;;13.65;36.40
61324;BME280;47203;48.428;11.974;2023-03-17T08:32:36;96562.19;;;13.84;35.80
61324;BME280;47203;48.428;11.974;2023-03-17T08:34:42;96566.66;;;14.03;35.60
61324;BME280;47203;48.428;11.974;2023-03-17T08:36:49;96560.84;;;14.20;35.86
61324;BME280;47203;48.428;11.974;2023-03-17T08:38:54;96561.66;;;14.34;35.51
61324;BME280;47203;48.428;11.974;2023-03-17T08:41:00;96554.41;;;14.54;35.57
61324;BME280;47203;48.428;11.974;2023-03-17T08:43:05;96557.78;;;14.73;35.50
61324;BME280;47203;48.428;11.974;2023-03-17T08:45:12;96559.34;;;14.88;35.31
61324;BME280;47203;48.428;11.974;2023-03-17T08:47:17;96557.97;;;15.05;35.23
61324;BME280;47203;48.428;11.974;2023-03-17T08:49:25;96556.25;;;15.23;34.96
61324;BME280;47203;48.428;11.974;2023-03-17T08:51:32;96547.97;;;15.38;35.18
61324;BME280;47203;48.428;11.974;2023-03-17T08:53:38;96543.13;;;15.54;35.09
61324;BME280;47203;48.428;11.974;2023-03-17T08:55:43;96538.13;;;15.75;34.84
61324;BME280;47203;48.428;11.974;2023-03-17T08:57:48;96530.97;;;15.98;34.61
61324;BME280;47203;48.428;11.974;2023-03-17T08:59:53;96537.94;;;16.17;34.45
61324;BME280;47203;48.428;11.974;2023-03-17T09:01:58;96539.13;;;16.33;34.41
61324;BME280;47203;48.428;11.974;2023-03-17T09:04:03;96537.94;;;16.48;34.35
61324;BME280;47203;48.428;11.974;2023-03-17T09:06:12;96532.97;;;16.64;34.01
61324;BME280;47203;48.428;11.974;2023-03-17T09:08:17;96547.13;;;16.82;34.23
61324;BME280;47203;48.428;11.974;2023-03-17T09:10:22;96552.03;;;16.98;34.17
61324;BME280;47203;48.428;11.974;2023-03-17T09:12:28;96555.53;;;17.16;33.74
61324;BME280;47203;48.428;11.974;2023-03-17T09:14:35;96549.13;;;17.34;33.40
61324;BME280;47203;48.428;11.974;2023-03-17T09:16:45;96566.34;;;17.54;33.80
61324;BME280;47203;48.428;11.974;2023-03-17T09:18:51;96557.28;;;17.73;33.48
61324;BME280;47203;48.428;11.974;2023-03-17T09:20:56;96572.78;;;17.97;33.28
61324;BME280;47203;48.428;11.974;2023-03-17T09:23:08;96578.69;;;18.20;33.43
61324;BME280;47203;48.428;11.974;2023-03-17T09:25:13;96578.00;;;18.41;32.90
61324;BME280;47203;48.428;11.974;2023-03-17T09:27:19;96574.19;;;18.59;32.64
61324;BME280;47203;48.428;11.974;2023-03-17T09:29:24;96562.97;;;18.75;32.54
61324;BME280;47203;48.428;11.974;2023-03-17T09:31:29;96564.97;;;18.95;32.57
61324;BME280;47203;48.428;11.974;2023-03-17T09:33:34;96571.91;;;19.17;32.45
61324;BME280;47203;48.428;11.974;2023-03-17T09:35:39;96572.72;;;19.39;32.21
61324;BME280;47203;48.428;11.974;2023-03-17T09:37:44;96562.81;;;19.61;32.16
61324;BME280;47203;48.428;11.974;2023-03-17T09:39:53;96560.28;;;19.85;31.62
61324;BME280;47203;48.428;11.974;2023-03-17T09:42:17;96550.47;;;20.11;31.60
61324;BME280;47203;48.428;11.974;2023-03-17T09:44:32;96549.28;;;20.33;31.34
61324;BME280;47203;48.428;11.974;2023-03-17T09:46:48;96545.72;;;20.41;30.49
61324;BME280;47203;48.428;11.974;2023-03-17T09:48:58;96541.19;;;20.42;30.33
61324;BME280;47203;48.428;11.974;2023-03-17T09:51:07;96529.44;;;20.34;32.07
61324;BME280;47203;48.428;11.974;2023-03-17T09:53:17;96529.31;;;20.18;31.38
61324;BME280;47203;48.428;11.974;2023-03-17T09:55:28;96520.03;;;20.03;30.99
61324;BME280;47203;48.428;11.974;2023-03-17T09:57:36;96517.22;;;19.87;31.95
61324;BME280;47203;48.428;11.974;2023-03-17T09:59:43;96519.25;;;19.69;33.33
61324;BME280;47203;48.428;11.974;2023-03-17T10:01:49;96511.28;;;19.48;32.54
61324;BME280;47203;48.428;11.974;2023-03-17T10:03:55;96513.28;;;19.30;32.95
61324;BME280;47203;48.428;11.974;2023-03-17T10:06:13;96508.78;;;19.00;32.68
61324;BME280;47203;48.428;11.974;2023-03-17T10:08:21;96510.09;;;18.86;32.14
61324;BME280;47203;48.428;11.974;2023-03-17T10:10:41;96514.16;;;18.62;32.54
61324;BME280;47203;48.428;11.974;2023-03-17T10:12:57;96503.56;;;18.44;32.27
61324;BME280;47203;48.428;11.974;2023-03-17T10:15:15;96499.06;;;18.27;35.00
61324;BME280;47203;48.428;11.974;2023-03-17T10:17:24;96500.38;;;18.12;34.11
61324;BME280;47203;48.428;11.974;2023-03-17T10:19:31;96500.56;;;17.99;33.33
61324;BME280;47203;48.428;11.974;2023-03-17T10:21:45;96499.63;;;17.86;33.06
61324;BME280;47203;48.428;11.974;2023-03-17T10:23:54;96494.31;;;17.77;32.72
61324;BME280;47203;48.428;11.974;2023-03-17T10:26:05;96497.28;;;17.67;32.33
61324;BME280;47203;48.428;11.974;2023-03-17T10:28:22;96491.22;;;17.57;32.85
61324;BME280;47203;48.428;11.974;2023-03-17T10:30:30;96498.56;;;17.52;33.85
61324;BME280;47203;48.428;11.974;2023-03-17T10:32:38;96500.16;;;17.44;33.86
61324;BME280;47203;48.428;11.974;2023-03-17T10:34:43;96501.72;;;17.36;33.19
61324;BME280;47203;48.428;11.974;2023-03-17T10:36:52;96496.22;;;17.33;35.02
61324;BME280;47203;48.428;11.974;2023-03-17T10:38:58;96496.53;;;17.31;34.97
61324;BME280;47203;48.428;11.974;2023-03-17T10:41:12;96489.97;;;17.28;33.91
61324;BME280;47203;48.428;11.974;2023-03-17T10:43:19;96495.28;;;17.28;33.51
61324;BME280;47203;48.428;11.974;2023-03-17T10:45:27;96481.84;;;17.25;34.24
61324;BME280;47203;48.428;11.974;2023-03-17T10:47:34;96487.16;;;17.25;33.61
61324;BME280;47203;48.428;11.974;2023-03-17T10:49:43;96483.88;;;17.19;35.40
61324;BME280;47203;48.428;11.974;2023-03-17T10:51:50;96489.03;;;17.16;36.79
61324;BME280;47203;48.428;11.974;2023-03-17T10:53:58;96477.16;;;17.13;35.44
61324;BME280;47203;48.428;11.974;2023-03-17T10:56:10;96480.25;;;17.15;35.66
61324;BME280;47203;48.428;11.974;2023-03-17T10:58:35;96477.91;;;17.14;34.85
61324;BME280;47203;48.428;11.974;2023-03-17T11:00:53;96471.19;;;17.16;35.66
61324;BME280;47203;48.428;11.974;2023-03-17T11:03:07;96474.00;;;17.20;34.94
61324;BME280;47203;48.428;11.974;2023-03-17T11:05:19;96477.16;;;17.22;35.40
61324;BME280;47203;48.428;11.974;2023-03-17T11:07:27;96476.53;;;17.25;34.79
61324;BME280;47203;48.428;11.974;2023-03-17T11:09:34;96478.56;;;17.28;34.66
61324;BME280;47203;48.428;11.974;2023-03-17T11:11:47;96475.44;;;17.26;34.73